Webcam & Weather

This webcam image will automatically refresh every 15 seconds.


METAR and TAF for EGLL Heathrow (12 Nautical Miles East of White Waltham)

METAR FOR EGLL (Issued: Wed, June 29th 2016 12:20 PM UTC):
EGLL 291220Z AUTO 21016KT 9999 -RA BKN016 15/13 Q1008 TEMPO BKN012

TAF FOR EGLL (Issued: Wed, June 29th 2016 12:15 PM UTC):
TAF EGLL 291059Z 2912/3018 21013KT 9999 SCT020 BKN035 TEMPO 2912/2920 21016G27KT 7000 -RA BKN014 PROB30 TEMPO 2912/2922 4500 RADZ BKN009 PROB30 TEMPO 2922/3007 7000 -RADZ BKN010 PROB30 TEMPO 3013/3018 8000 SHRA BKN014

Play 24 hour timelapse | Play 30 day timelapse

Comments are closed.